Time;durP1;ratioP1;P1;durP2;ratioP2;P2;SDS_P1;SDS_P2;PMS_P1;PMS_P2;Temp;Humidity;BMP_temperature;BMP_pressure;BME280_temperature;BME280_humidity;BME280_pressure;Samples;Min_cycle;Max_cycle;Signal;HPM_P1;HPM_P2
2021/12/05 00:19:35;;;;;;;3.70;1.10;;;13.90;70.20;;;;;;4776086;30;20093;-73
2021/12/05 00:22:14;;;;;;;3.63;1.30;;;13.90;69.80;;;;;;4791715;30;20063;-75
2021/12/05 00:24:44;;;;;;;3.80;0.90;;;13.90;69.60;;;;;;4791035;30;20063;-74
2021/12/05 00:27:16;;;;;;;3.25;1.27;;;13.90;69.50;;;;;;4776176;30;20434;-72
2021/12/05 01:10:14;;;;;;;2.63;1.00;;;13.80;69.30;;;;;;4790923;30;20066;-73
2021/12/05 01:13:24;;;;;;;3.25;0.95;;;13.80;69.20;;;;;;4791542;30;20442;-74
2021/12/05 01:15:28;;;;;;;3.33;1.20;;;13.70;69.10;;;;;;4788607;30;20066;-73
2021/12/05 01:20:23;;;;;;;1.63;1.00;;;13.70;69.30;;;;;;4791014;30;20111;-73
2021/12/05 01:23:00;;;;;;;2.00;1.10;;;13.70;69.20;;;;;;4775552;30;20144;-75
2021/12/05 01:30:56;;;;;;;3.13;0.93;;;13.80;69.20;;;;;;4775078;30;20059;-75
2021/12/05 01:33:35;;;;;;;3.80;1.45;;;13.80;69.00;;;;;;4775591;30;20055;-73
2021/12/05 01:36:18;;;;;;;5.45;1.48;;;13.80;69.10;;;;;;4790971;30;20483;-73
2021/12/05 01:39:08;;;;;;;5.68;1.30;;;13.80;69.00;;;;;;4790954;30;20134;-72
2021/12/05 01:42:06;;;;;;;2.42;0.90;;;13.80;69.10;;;;;;4774834;30;20482;-73
2021/12/05 02:09:22;;;;;;;;;;;13.70;68.90;;;;;;4774949;30;20063;-72
2021/12/05 02:41:21;;;;;;;;;;;13.70;69.30;;;;;;4774699;30;20062;-73
2021/12/05 02:43:56;;;;;;;4.78;1.35;;;13.70;68.30;;;;;;4773927;30;19925;-74
2021/12/05 02:46:23;;;;;;;3.58;1.23;;;13.70;69.40;;;;;;4790085;30;20468;-73
2021/12/05 02:48:49;;;;;;;3.58;1.23;;;13.80;69.50;;;;;;4789714;30;20165;-74
2021/12/05 02:51:22;;;;;;;3.75;0.98;;;13.80;69.40;;;;;;4773995;30;20051;-73
2021/12/05 02:53:53;;;;;;;2.00;0.80;;;13.70;69.40;;;;;;4774007;30;20056;-73
2021/12/05 02:56:20;;;;;;;2.38;0.90;;;13.80;69.30;;;;;;4789758;30;20316;-74
2021/12/05 02:58:57;;;;;;;2.92;1.08;;;13.70;69.30;;;;;;4773986;30;20059;-74
2021/12/05 03:01:53;;;;;;;2.80;0.77;;;13.80;69.30;;;;;;4788913;30;20051;-73
2021/12/05 03:04:13;;;;;;;5.10;1.38;;;13.80;69.30;;;;;;4789464;30;20407;-73
2021/12/05 03:06:49;;;;;;;3.08;1.00;;;13.80;69.10;;;;;;4774404;30;20059;-74
2021/12/05 03:09:15;;;;;;;4.22;1.05;;;13.70;69.10;;;;;;4773911;30;20387;-74
2021/12/05 03:11:43;;;;;;;2.35;1.08;;;13.70;69.10;;;;;;4773749;30;20059;-74
2021/12/05 03:14:10;;;;;;;2.78;1.10;;;13.70;69.10;;;;;;4788597;30;20524;-74
2021/12/05 03:16:38;;;;;;;3.83;1.55;;;13.70;69.10;;;;;;4790027;30;20055;-74
2021/12/05 03:19:06;;;;;;;3.55;1.15;;;13.70;69.00;;;;;;4788601;30;20078;-73
2021/12/05 03:21:33;;;;;;;4.95;1.45;;;13.70;69.00;;;;;;4789404;30;20433;-74
2021/12/05 03:24:00;;;;;;;4.97;1.55;;;13.70;69.10;;;;;;4789327;30;20051;-75
2021/12/05 03:26:31;;;;;;;2.78;0.90;;;13.70;69.20;;;;;;4788805;30;20055;-73
2021/12/05 03:28:58;;;;;;;3.15;1.25;;;13.70;69.10;;;;;;4789712;30;20464;-73
2021/12/05 03:31:30;;;;;;;2.70;1.40;;;13.70;69.00;;;;;;4789333;30;20058;-74
2021/12/05 03:33:56;;;;;;;3.88;1.30;;;13.70;68.80;;;;;;4788912;30;20056;-73
2021/12/05 03:36:23;;;;;;;2.28;1.23;;;13.70;69.00;;;;;;4789223;29;20043;-72
2021/12/05 03:38:49;;;;;;;4.80;1.55;;;13.70;68.90;;;;;;4775959;30;20055;-75
2021/12/05 03:41:16;;;;;;;4.70;1.25;;;13.70;68.80;;;;;;4792416;30;20055;-73
2021/12/05 03:43:45;;;;;;;5.60;1.63;;;13.70;68.80;;;;;;4791517;30;20055;-73
2021/12/05 03:46:12;;;;;;;2.38;1.17;;;13.60;68.60;;;;;;4776549;30;20051;-75
2021/12/05 03:48:42;;;;;;;3.65;1.05;;;13.70;69.30;;;;;;4792934;30;20055;-74
2021/12/05 03:51:11;;;;;;;3.47;1.42;;;13.70;68.80;;;;;;4791778;30;20455;-74
2021/12/05 03:53:37;;;;;;;3.05;1.33;;;13.60;68.50;;;;;;4776646;30;20062;-75
2021/12/05 03:56:05;;;;;;;5.78;1.70;;;13.70;68.80;;;;;;4792137;30;20055;-74
2021/12/05 03:58:32;;;;;;;3.65;1.60;;;13.70;68.60;;;;;;4792264;30;20067;-72
2021/12/05 04:01:00;;;;;;;2.75;1.08;;;13.70;68.70;;;;;;4777195;30;20083;-73
2021/12/05 04:03:27;;;;;;;3.38;1.40;;;13.60;68.70;;;;;;4792171;30;20072;-74
2021/12/05 04:05:54;;;;;;;4.10;1.80;;;13.60;68.70;;;;;;4792076;30;20156;-73
2021/12/05 04:08:22;;;;;;;4.05;1.40;;;13.60;68.60;;;;;;4791859;30;20105;-74
2021/12/05 04:10:53;;;;;;;3.58;1.58;;;13.60;68.60;;;;;;4776249;30;20061;-73
2021/12/05 04:13:19;;;;;;;3.63;1.55;;;13.60;68.50;;;;;;4791762;30;20131;-75
2021/12/05 04:15:46;;;;;;;6.20;1.92;;;13.60;68.60;;;;;;4791018;30;20055;-73
2021/12/05 04:18:12;;;;;;;4.03;1.55;;;13.60;68.40;;;;;;4776390;30;20051;-76
2021/12/05 04:20:37;;;;;;;2.95;1.33;;;13.60;68.40;;;;;;4791738;30;20521;-73
2021/12/05 04:23:04;;;;;;;3.60;1.58;;;13.60;68.40;;;;;;4791742;30;20463;-73
2021/12/05 04:25:34;;;;;;;5.38;1.70;;;13.60;68.40;;;;;;4791850;30;20055;-75
2021/12/05 04:27:59;;;;;;;4.53;1.98;;;13.60;68.30;;;;;;4792295;30;20372;-73
2021/12/05 04:30:25;;;;;;;2.30;1.50;;;13.60;68.40;;;;;;4776208;30;20063;-73
2021/12/05 04:32:51;;;;;;;3.47;1.33;;;13.60;68.40;;;;;;4776213;30;20059;-74
2021/12/05 04:35:17;;;;;;;3.53;1.40;;;13.60;68.40;;;;;;4791966;30;20051;-72
2021/12/05 04:37:44;;;;;;;3.22;1.60;;;13.60;68.30;;;;;;4790725;30;20047;-74
2021/12/05 04:40:11;;;;;;;5.63;1.88;;;13.60;68.30;;;;;;4792093;30;20071;-74
2021/12/05 04:42:37;;;;;;;3.25;1.70;;;13.60;68.20;;;;;;4791643;30;20127;-73
2021/12/05 04:45:11;;;;;;;4.60;1.70;;;13.60;68.20;;;;;;4791203;30;20425;-73
2021/12/05 04:47:36;;;;;;;3.60;1.98;;;13.60;68.30;;;;;;4775851;30;20059;-73
2021/12/05 04:50:03;;;;;;;5.07;2.33;;;13.60;68.30;;;;;;4789701;29;20051;-74
2021/12/05 04:52:29;;;;;;;3.88;1.70;;;13.60;68.30;;;;;;4790968;30;20444;-74
2021/12/05 04:54:55;;;;;;;4.28;1.90;;;13.60;68.20;;;;;;4775724;30;20062;-74
2021/12/05 04:57:20;;;;;;;6.70;2.75;;;13.60;68.10;;;;;;4775725;30;20059;-75
2021/12/05 04:59:50;;;;;;;6.45;2.30;;;13.60;68.10;;;;;;4791234;30;20066;-75
2021/12/05 05:02:18;;;;;;;3.42;1.77;;;13.60;68.10;;;;;;4790577;30;20135;-73
2021/12/05 05:04:48;;;;;;;6.65;2.35;;;13.60;68.00;;;;;;4790371;30;20544;-73
2021/12/05 05:07:25;;;;;;;5.68;2.28;;;13.60;67.90;;;;;;4791110;30;20142;-73
2021/12/05 05:09:55;;;;;;;4.60;2.47;;;13.60;67.90;;;;;;4775670;30;20054;-73
2021/12/05 05:12:21;;;;;;;6.22;1.90;;;13.60;68.00;;;;;;4775413;30;20123;-74
2021/12/05 05:14:47;;;;;;;10.95;3.72;;;13.50;67.80;;;;;;4789989;30;20051;-75
2021/12/05 05:17:13;;;;;;;11.82;5.88;;;13.60;67.20;;;;;;4775759;30;20065;-75
2021/12/05 05:19:44;;;;;;;12.60;6.00;;;13.60;64.40;;;;;;4791518;30;20062;-76
2021/12/05 05:22:25;;;;;;;13.93;6.15;;;13.50;62.40;;;;;;4790997;30;20055;-74
2021/12/05 05:46:17;;;;;;;13.68;7.10;;;12.70;59.10;;;;;;4774804;30;20105;-74
2021/12/05 05:48:49;;;;;;;14.18;6.13;;;12.60;59.00;;;;;;4790121;30;20059;-75
2021/12/05 05:51:16;;;;;;;16.25;7.50;;;12.60;59.00;;;;;;4790907;30;20420;-74
2021/12/05 05:53:42;;;;;;;13.00;6.80;;;12.50;59.00;;;;;;4775309;30;20063;-74
2021/12/05 05:56:13;;;;;;;13.18;6.95;;;12.50;59.30;;;;;;4790286;30;20056;-73
2021/12/05 05:58:51;;;;;;;15.50;6.68;;;12.40;59.30;;;;;;4789524;30;20593;-75
2021/12/05 06:04:06;;;;;;;12.52;6.25;;;12.40;59.30;;;;;;4784687;30;20059;-72
2021/12/05 06:06:32;;;;;;;17.65;7.15;;;12.30;59.90;;;;;;4790549;30;20043;-76
2021/12/05 06:08:59;;;;;;;13.68;6.28;;;12.40;60.70;;;;;;4790209;30;20055;-74
2021/12/05 06:11:25;;;;;;;14.95;5.97;;;12.40;61.40;;;;;;4774434;30;20116;-78
2021/12/05 06:13:52;;;;;;;25.42;6.78;;;12.50;62.20;;;;;;4789470;30;20479;-71
2021/12/05 06:16:19;;;;;;;22.17;5.78;;;12.60;61.90;;;;;;4774942;30;20341;-74
2021/12/05 06:18:46;;;;;;;32.63;6.47;;;12.80;62.50;;;;;;4774895;30;20051;-75
2021/12/05 06:21:13;;;;;;;24.05;5.95;;;13.00;62.50;;;;;;4790003;30;20047;-77
2021/12/05 06:23:40;;;;;;;25.45;6.30;;;13.20;62.70;;;;;;4790015;30;20130;-71
2021/12/05 06:26:08;;;;;;;26.15;5.90;;;13.40;63.40;;;;;;4789947;30;20078;-76
2021/12/05 06:47:28;;;;;;;;;;;14.80;63.80;;;;;;4789854;30;20043;-74
2021/12/05 06:49:56;;;;;;;16.67;4.25;;;14.90;64.10;;;;;;4789865;30;19985;-79
2021/12/05 06:52:23;;;;;;;14.00;3.83;;;14.90;64.50;;;;;;4789778;30;20059;-77
2021/12/05 06:54:49;;;;;;;15.80;3.83;;;15.00;64.80;;;;;;4788551;30;20062;-77
2021/12/05 06:57:14;;;;;;;14.52;4.35;;;15.00;65.10;;;;;;4774067;30;20150;-76
2021/12/05 06:59:41;;;;;;;14.27;4.28;;;15.00;64.80;;;;;;4789143;30;20059;-77
2021/12/05 07:02:09;;;;;;;14.38;3.50;;;15.10;65.00;;;;;;4789673;30;20118;-76
2021/12/05 07:07:24;;;;;;;13.68;3.65;;;15.20;65.40;;;;;;4790394;30;20095;-75
2021/12/05 07:09:51;;;;;;;12.32;4.32;;;15.30;65.40;;;;;;4789685;30;20063;-77
2021/12/05 07:15:07;;;;;;;12.80;3.72;;;15.50;65.50;;;;;;4793089;30;20059;-77
2021/12/05 07:25:31;;;;;;;14.93;4.25;;;15.70;65.60;;;;;;4792978;30;20058;-77
2021/12/05 07:41:49;;;;;;;27.63;4.32;;;16.00;66.00;;;;;;4792740;30;20055;-72
2021/12/05 07:44:16;;;;;;;21.35;4.28;;;16.00;65.40;;;;;;4777137;30;20066;-74
2021/12/05 07:46:42;;;;;;;37.10;5.20;;;16.00;65.30;;;;;;4792758;30;20094;-75
2021/12/05 07:49:10;;;;;;;21.73;3.90;;;16.10;65.20;;;;;;4792471;30;20055;-77
2021/12/05 07:51:41;;;;;;;24.52;4.68;;;16.00;65.10;;;;;;4776397;30;20471;-75
2021/12/05 07:54:13;;;;;;;26.15;4.80;;;16.00;64.60;;;;;;4792208;30;20160;-75
2021/12/05 08:15:31;;;;;;;23.98;4.18;;;15.70;63.80;;;;;;4776112;30;20063;-76
2021/12/05 08:17:58;;;;;;;15.20;3.50;;;15.60;63.90;;;;;;4776456;30;20521;-76
2021/12/05 08:20:44;;;;;;;20.25;4.55;;;15.60;63.80;;;;;;4776178;30;20055;-74
2021/12/05 08:23:12;;;;;;;25.35;3.55;;;15.60;63.50;;;;;;4791540;29;20062;-76
2021/12/05 08:25:41;;;;;;;13.55;4.00;;;15.50;63.80;;;;;;4791807;30;20064;-74
2021/12/05 08:31:11;;;;;;;16.90;3.63;;;15.40;63.80;;;;;;4769013;30;20070;-75
2021/12/05 08:36:29;;;;;;;14.23;3.70;;;15.30;63.80;;;;;;4791383;30;20491;-74
2021/12/05 09:28:31;;;;;;;5.47;1.75;;;15.20;63.20;;;;;;4775307;30;20063;-77
2021/12/05 09:31:02;;;;;;;8.18;2.40;;;15.20;63.10;;;;;;4775098;30;20067;-77
2021/12/05 10:01:55;;;;;;;7.05;2.10;;;15.20;62.90;;;;;;4774414;30;20055;-75
2021/12/05 10:14:58;;;;;;;4.72;2.00;;;15.20;62.80;;;;;;4789805;30;20134;-75
2021/12/05 10:17:55;;;;;;;5.22;1.77;;;15.20;62.70;;;;;;4774407;30;20066;-76
2021/12/05 10:37:19;;;;;;;3.05;1.33;;;15.20;62.60;;;;;;4774294;30;20059;-78
2021/12/05 10:39:46;;;;;;;4.75;1.60;;;15.20;62.60;;;;;;4773834;30;20055;-75
2021/12/05 10:42:44;;;;;;;3.75;1.80;;;15.20;62.60;;;;;;4790162;30;20075;-77
2021/12/05 10:45:19;;;;;;;7.80;2.08;;;15.20;62.50;;;;;;4774097;30;20428;-77
2021/12/05 10:47:49;;;;;;;5.63;1.80;;;15.20;62.50;;;;;;4792899;30;20448;-77
2021/12/05 10:50:31;;;;;;;5.10;1.98;;;15.20;62.50;;;;;;4793282;30;20156;-76
2021/12/05 10:53:33;;;;;;;2.80;1.20;;;15.20;62.40;;;;;;4792721;30;20058;-77
2021/12/05 10:56:17;;;;;;;4.40;1.70;;;15.20;62.40;;;;;;4777893;30;20074;-77
2021/12/05 10:58:51;;;;;;;3.40;1.58;;;15.20;62.30;;;;;;4792983;30;20054;-74
2021/12/05 11:01:25;;;;;;;6.35;1.73;;;15.20;62.40;;;;;;4793746;30;20065;-75
2021/12/05 11:03:55;;;;;;;3.03;1.67;;;15.20;62.40;;;;;;4793189;30;20067;-76
2021/12/05 11:06:27;;;;;;;5.68;1.88;;;15.20;62.50;;;;;;4793478;30;20070;-75
2021/12/05 11:09:19;;;;;;;6.25;2.10;;;15.20;62.50;;;;;;4777836;30;20055;-77
2021/12/05 11:11:47;;;;;;;3.25;1.77;;;15.20;62.40;;;;;;4770714;30;20074;-75
2021/12/05 11:14:18;;;;;;;6.22;1.50;;;15.20;62.40;;;;;;4777115;30;20063;-78
2021/12/05 11:16:48;;;;;;;3.53;1.75;;;15.20;62.40;;;;;;4792955;30;20074;-73
2021/12/05 11:19:22;;;;;;;3.45;1.40;;;15.20;62.40;;;;;;4757383;30;20088;-76
2021/12/05 11:21:54;;;;;;;4.15;1.70;;;15.20;62.40;;;;;;4776741;30;20052;-77
2021/12/05 11:24:24;;;;;;;4.72;2.17;;;15.20;62.40;;;;;;4791177;30;20051;-79
2021/12/05 11:27:01;;;;;;;3.80;1.77;;;15.20;62.30;;;;;;4776645;30;20127;-76
2021/12/05 11:29:46;;;;;;;6.57;2.25;;;15.20;62.30;;;;;;4793082;30;20138;-74
2021/12/05 11:32:29;;;;;;;7.88;2.17;;;15.30;62.10;;;;;;4793006;30;20063;-73
2021/12/05 11:34:55;;;;;;;7.45;2.13;;;15.30;62.70;;;;;;4776957;30;20051;-73
2021/12/05 11:37:21;;;;;;;10.18;2.50;;;15.30;62.20;;;;;;4792607;29;20126;-74
2021/12/05 11:39:48;;;;;;;6.45;2.47;;;15.20;62.00;;;;;;4776513;30;20070;-72
2021/12/05 11:42:20;;;;;;;9.55;2.30;;;15.20;61.90;;;;;;4792644;30;20089;-74
2021/12/05 11:44:54;;;;;;;9.30;2.58;;;15.30;61.90;;;;;;4777104;30;20087;-73
2021/12/05 11:47:22;;;;;;;3.53;1.85;;;15.30;61.90;;;;;;4792771;30;20078;-72
2021/12/05 11:49:48;;;;;;;4.38;2.13;;;15.20;61.90;;;;;;4792339;30;20050;-74
2021/12/05 11:52:23;;;;;;;5.07;2.20;;;15.20;62.00;;;;;;4792471;30;20094;-72
2021/12/05 11:54:51;;;;;;;5.25;1.95;;;15.20;61.90;;;;;;4775624;30;20109;-73
2021/12/05 11:57:25;;;;;;;6.43;1.70;;;15.30;62.00;;;;;;4776881;30;20055;-74
2021/12/05 12:00:00;;;;;;;3.65;1.75;;;15.30;61.90;;;;;;4791980;29;20123;-73
2021/12/05 12:02:26;;;;;;;5.90;1.80;;;15.30;61.90;;;;;;4776476;30;20043;-72
2021/12/05 12:05:00;;;;;;;7.05;2.33;;;15.30;62.00;;;;;;4792712;30;20137;-74
2021/12/05 12:07:45;;;;;;;4.40;1.85;;;15.20;62.00;;;;;;4792678;30;20072;-73
2021/12/05 12:10:16;;;;;;;4.68;1.80;;;15.30;62.00;;;;;;4792465;30;20063;-77
2021/12/05 12:12:50;;;;;;;4.38;1.60;;;15.20;62.00;;;;;;4777180;30;20506;-74
2021/12/05 12:15:17;;;;;;;3.60;1.50;;;15.30;62.10;;;;;;4791914;30;20134;-73
2021/12/05 12:17:45;;;;;;;3.63;1.98;;;15.30;62.10;;;;;;4792084;30;20487;-74
2021/12/05 12:20:16;;;;;;;3.90;1.90;;;15.20;62.00;;;;;;4792314;30;20063;-75
2021/12/05 12:22:42;;;;;;;7.75;1.85;;;15.20;62.00;;;;;;4791803;30;20138;-74
2021/12/05 12:25:13;;;;;;;4.40;2.13;;;15.20;62.10;;;;;;4792099;30;20127;-74
2021/12/05 12:27:42;;;;;;;4.38;1.70;;;15.30;62.10;;;;;;4791782;30;20112;-72
2021/12/05 12:30:10;;;;;;;3.75;1.38;;;15.20;62.00;;;;;;4792041;30;20070;-74
2021/12/05 12:32:48;;;;;;;2.25;1.15;;;15.30;62.10;;;;;;4775516;30;20140;-72
2021/12/05 12:35:21;;;;;;;5.20;1.95;;;15.20;62.00;;;;;;4761675;30;20212;-71
2021/12/05 12:38:14;;;;;;;4.65;1.92;;;15.20;62.00;;;;;;4790904;29;20071;-74
2021/12/05 12:40:42;;;;;;;3.10;1.65;;;15.20;62.00;;;;;;4791610;30;20066;-73
2021/12/05 12:43:28;;;;;;;3.05;1.25;;;15.30;62.10;;;;;;4791169;30;20051;-73
2021/12/05 12:45:54;;;;;;;2.70;1.17;;;15.30;62.10;;;;;;4791883;30;20055;-72
2021/12/05 12:48:26;;;;;;;3.65;1.55;;;15.30;62.10;;;;;;4791039;30;20128;-74
2021/12/05 12:50:53;;;;;;;7.18;1.73;;;15.20;62.00;;;;;;4792056;30;20051;-74
2021/12/05 12:53:37;;;;;;;3.85;1.60;;;15.20;62.00;;;;;;4790583;30;20047;-75
2021/12/05 12:56:17;;;;;;;2.53;1.23;;;15.30;62.00;;;;;;4791459;30;20091;-74
2021/12/05 12:58:50;;;;;;;2.95;1.63;;;15.30;62.10;;;;;;4790857;30;20054;-73
2021/12/05 13:01:51;;;;;;;3.65;1.33;;;15.30;62.10;;;;;;4790926;30;20047;-73
2021/12/05 13:10:40;;;;;;;3.80;1.10;;;15.30;62.10;;;;;;4774562;30;20056;-74
2021/12/05 13:13:20;;;;;;;1.70;0.95;;;15.20;61.90;;;;;;4790852;30;20043;-73
2021/12/05 13:15:53;;;;;;;3.75;1.50;;;15.20;61.90;;;;;;4791474;30;20140;-73
2021/12/05 13:18:25;;;;;;;3.25;0.88;;;15.30;62.00;;;;;;4791321;30;20464;-73
2021/12/05 13:20:57;;;;;;;2.72;1.50;;;15.30;62.00;;;;;;4791167;30;20478;-73
2021/12/05 13:23:28;;;;;;;3.17;1.20;;;15.30;62.00;;;;;;4791003;30;20062;-74
2021/12/05 13:26:12;;;;;;;2.83;1.30;;;15.30;62.10;;;;;;4790883;30;20055;-73
2021/12/05 13:28:42;;;;;;;2.42;1.40;;;15.30;61.90;;;;;;4791211;30;20422;-74
2021/12/05 13:31:30;;;;;;;2.63;1.38;;;15.30;62.10;;;;;;4790170;30;20138;-74
2021/12/05 13:34:19;;;;;;;3.85;1.35;;;15.30;61.90;;;;;;4791130;29;20062;-72
2021/12/05 13:36:47;;;;;;;2.70;1.15;;;15.30;61.90;;;;;;4790864;30;20059;-72
2021/12/05 13:39:49;;;;;;;2.72;1.33;;;15.20;62.00;;;;;;4774574;30;20060;-74
2021/12/05 13:42:42;;;;;;;3.58;1.08;;;15.30;61.90;;;;;;4790927;29;20050;-75
2021/12/05 13:45:27;;;;;;;8.07;1.90;;;15.30;62.20;;;;;;4790683;29;20055;-72
2021/12/05 13:47:53;;;;;;;7.50;2.00;;;15.30;61.90;;;;;;4789805;29;20093;-74
2021/12/05 13:50:18;;;;;;;10.35;3.15;;;15.30;61.90;;;;;;4774831;30;20083;-76
2021/12/05 13:52:55;;;;;;;18.52;3.42;;;15.20;61.70;;;;;;4790169;30;20070;-76
2021/12/05 13:55:43;;;;;;;20.52;3.00;;;15.30;61.30;;;;;;4774413;30;20055;-74
2021/12/05 14:01:15;;;;;;;15.13;2.22;;;15.30;61.40;;;;;;4789839;30;20376;-78
2021/12/05 14:03:57;;;;;;;18.38;3.28;;;15.40;61.50;;;;;;4790009;30;20115;-76
2021/12/05 14:06:37;;;;;;;20.38;2.75;;;15.50;62.00;;;;;;4790339;30;20066;-76
2021/12/05 14:09:26;;;;;;;16.35;2.83;;;15.60;62.10;;;;;;4790072;30;20054;-73
2021/12/05 14:11:55;;;;;;;14.70;2.60;;;15.70;61.40;;;;;;4789605;30;20119;-73
2021/12/05 14:14:27;;;;;;;16.20;2.67;;;15.70;62.20;;;;;;4790571;30;20066;-74
2021/12/05 14:16:56;;;;;;;21.13;2.63;;;15.70;62.20;;;;;;4773931;30;20092;-74
2021/12/05 14:19:29;;;;;;;14.40;3.42;;;15.80;62.70;;;;;;4774423;30;20051;-79
2021/12/05 14:21:58;;;;;;;21.27;2.80;;;15.60;62.10;;;;;;4790017;29;20050;-78
2021/12/05 14:24:28;;;;;;;21.77;3.78;;;15.70;62.70;;;;;;4789217;30;20055;-78
2021/12/05 14:26:57;;;;;;;23.55;2.88;;;15.70;62.80;;;;;;4774868;30;20067;-75
2021/12/05 14:29:26;;;;;;;20.75;3.38;;;15.80;62.90;;;;;;4774137;30;20118;-77
2021/12/05 14:32:07;;;;;;;15.43;2.03;;;15.80;62.80;;;;;;4789754;30;20455;-76
2021/12/05 14:34:33;;;;;;;17.45;2.92;;;15.80;62.80;;;;;;4774365;29;20051;-82
2021/12/05 14:37:10;;;;;;;17.88;2.33;;;15.90;62.80;;;;;;4774602;30;20479;-77
2021/12/05 14:39:47;;;;;;;15.57;2.63;;;16.00;62.80;;;;;;4773872;30;20070;-76
2021/12/05 14:42:20;;;;;;;19.73;2.35;;;16.00;63.00;;;;;;4789996;30;20062;-78
2021/12/05 14:45:11;;;;;;;16.73;2.83;;;16.10;63.00;;;;;;4789653;29;20066;-79
2021/12/05 14:47:45;;;;;;;18.65;2.30;;;16.10;62.90;;;;;;4780323;30;20070;-81
2021/12/05 14:50:19;;;;;;;20.08;3.60;;;16.20;62.80;;;;;;4755945;30;20055;-80
2021/12/05 14:52:46;;;;;;;;;;;16.30;62.60;;;;;;4770998;30;20051;-79
2021/12/05 14:55:22;;;;;;;15.02;2.50;;;16.40;62.60;;;;;;4788566;30;19938;-79
2021/12/05 14:58:19;;;;;;;17.05;2.17;;;16.50;62.50;;;;;;4788885;30;20059;-77
2021/12/05 15:00:51;;;;;;;9.77;2.60;;;16.60;62.70;;;;;;4787899;30;20069;-78
2021/12/05 15:03:20;;;;;;;18.27;2.67;;;16.60;62.50;;;;;;4773617;30;20055;-76
2021/12/05 15:05:53;;;;;;;13.00;2.05;;;16.70;62.40;;;;;;4789719;30;20088;-77
2021/12/05 15:08:22;;;;;;;12.02;2.17;;;16.70;62.40;;;;;;4789654;30;20051;-75
2021/12/05 15:10:54;;;;;;;18.90;2.85;;;16.70;62.40;;;;;;4774025;30;20067;-77
2021/12/05 15:13:19;;;;;;;13.65;2.33;;;16.70;62.60;;;;;;4789614;30;20070;-76
2021/12/05 15:19:14;;;;;;;15.63;3.78;;;16.70;62.00;;;;;;4789496;30;20423;-76
2021/12/05 15:21:41;;;;;;;20.25;4.28;;;16.80;61.50;;;;;;4773142;30;20058;-78
2021/12/05 15:24:15;;;;;;;20.52;3.00;;;16.70;61.10;;;;;;4789500;30;20047;-74
2021/12/05 15:26:41;;;;;;;19.63;3.55;;;16.70;61.00;;;;;;4789149;29;20039;-76
2021/12/05 15:29:06;;;;;;;19.50;3.50;;;16.70;61.20;;;;;;4788946;30;20367;-75
2021/12/05 15:31:39;;;;;;;19.13;3.20;;;16.70;61.30;;;;;;4789432;30;20437;-76
2021/12/05 15:34:21;;;;;;;20.15;3.15;;;16.70;61.50;;;;;;4775117;30;20055;-76
2021/12/05 15:36:48;;;;;;;19.63;3.85;;;16.70;61.50;;;;;;4776769;30;20112;-77
2021/12/05 15:39:19;;;;;;;20.48;3.53;;;16.70;61.60;;;;;;4792386;29;20067;-76
2021/12/05 15:41:56;;;;;;;20.35;2.88;;;16.70;61.60;;;;;;4784124;30;20082;-76
2021/12/05 15:44:23;;;;;;;19.83;3.28;;;16.80;61.80;;;;;;4792502;30;20039;-75
2021/12/05 15:46:49;;;;;;;26.48;4.13;;;16.80;62.10;;;;;;4791928;30;20493;-76
2021/12/05 15:49:14;;;;;;;27.85;4.18;;;16.80;62.40;;;;;;4792489;30;20134;-76
2021/12/05 15:51:40;;;;;;;29.98;5.28;;;16.90;62.80;;;;;;4792722;30;20484;-77
2021/12/05 15:54:06;;;;;;;31.73;5.68;;;16.80;63.00;;;;;;4791890;30;20039;-77
2021/12/05 15:56:32;;;;;;;49.22;6.65;;;16.90;63.00;;;;;;4791884;30;20055;-75
2021/12/05 15:59:02;;;;;;;30.88;5.45;;;16.80;63.00;;;;;;4775609;30;20063;-76
2021/12/05 16:01:29;;;;;;;40.63;6.65;;;16.90;63.40;;;;;;4791984;30;20061;-78
2021/12/05 16:03:59;;;;;;;44.10;5.53;;;16.90;63.90;;;;;;4792642;30;20356;-76
2021/12/05 16:06:42;;;;;;;31.20;4.82;;;16.90;64.20;;;;;;4791843;30;20055;-76
2021/12/05 16:09:17;;;;;;;34.10;4.95;;;16.90;64.70;;;;;;4792506;30;20494;-76
2021/12/05 16:11:44;;;;;;;34.30;4.90;;;16.90;64.90;;;;;;4776268;30;20059;-74
2021/12/05 16:14:10;;;;;;;37.38;5.00;;;16.90;65.00;;;;;;4792484;30;20062;-75
2021/12/05 16:16:36;;;;;;;35.53;5.22;;;16.90;65.30;;;;;;4776472;30;20055;-75
2021/12/05 16:19:07;;;;;;;29.45;4.47;;;16.90;65.40;;;;;;4778056;30;20047;-78
2021/12/05 16:21:36;;;;;;;36.22;5.43;;;16.90;65.50;;;;;;4791931;30;20340;-75
2021/12/05 16:24:20;;;;;;;40.97;4.82;;;16.90;65.80;;;;;;4792017;30;20379;-79
2021/12/05 16:26:49;;;;;;;29.00;4.35;;;16.90;66.20;;;;;;4776215;30;20062;-76
2021/12/05 16:29:25;;;;;;;33.60;5.20;;;16.90;66.20;;;;;;4792033;30;20054;-80
2021/12/05 16:31:57;;;;;;;33.78;5.45;;;16.90;66.60;;;;;;4791887;30;20103;-77
2021/12/05 16:34:28;;;;;;;31.58;5.03;;;16.90;66.60;;;;;;4776195;30;20126;-76
2021/12/05 16:37:06;;;;;;;37.88;5.20;;;16.90;66.60;;;;;;4776440;30;20055;-77
2021/12/05 16:39:43;;;;;;;29.17;4.35;;;16.90;66.70;;;;;;4791174;29;20063;-75
2021/12/05 16:42:16;;;;;;;36.08;5.85;;;16.90;66.50;;;;;;4791427;30;20213;-77
2021/12/05 16:44:49;;;;;;;39.58;6.25;;;16.90;66.40;;;;;;4791380;29;20456;-75
2021/12/05 16:47:18;;;;;;;29.70;5.35;;;16.90;66.50;;;;;;4791188;30;20059;-76
2021/12/05 16:49:47;;;;;;;37.60;5.57;;;16.90;66.20;;;;;;4790524;30;20070;-77
2021/12/05 16:52:46;;;;;;;45.42;5.95;;;16.90;66.20;;;;;;4776078;30;20062;-74
2021/12/05 16:55:27;;;;;;;59.13;7.22;;;16.90;66.30;;;;;;4774216;30;20100;-76
2021/12/05 16:58:04;;;;;;;45.90;7.13;;;16.90;66.70;;;;;;4790673;30;20055;-74
2021/12/05 17:00:32;;;;;;;60.03;8.10;;;16.90;66.80;;;;;;4790536;30;20059;-75
2021/12/05 17:03:02;;;;;;;50.25;8.15;;;16.90;66.90;;;;;;4791125;30;20482;-80
2021/12/05 17:05:32;;;;;;;49.20;7.07;;;16.90;66.90;;;;;;4791046;30;20102;-73
2021/12/05 17:08:13;;;;;;;44.33;6.72;;;16.90;66.70;;;;;;4791207;30;20047;-81
2021/12/05 17:10:54;;;;;;;44.53;6.38;;;16.90;66.70;;;;;;4790800;30;20051;-77
2021/12/05 17:13:26;;;;;;;41.28;5.93;;;16.90;66.60;;;;;;4791000;30;20090;-76
2021/12/05 17:16:07;;;;;;;41.55;5.63;;;16.90;66.70;;;;;;4790989;30;20047;-72
2021/12/05 17:18:41;;;;;;;36.03;5.95;;;16.90;66.80;;;;;;4791049;30;20047;-74
2021/12/05 17:21:47;;;;;;;32.83;5.97;;;16.90;66.80;;;;;;4790437;30;20043;-72
2021/12/05 17:24:16;;;;;;;38.08;6.35;;;16.90;67.00;;;;;;4785142;30;20063;-76
2021/12/05 17:26:46;;;;;;;25.98;5.30;;;16.90;67.00;;;;;;4791189;30;20075;-74
2021/12/05 17:29:19;;;;;;;33.55;5.03;;;16.90;67.00;;;;;;4775276;30;20055;-78
2021/12/05 17:32:07;;;;;;;31.70;4.85;;;16.90;67.20;;;;;;4790717;30;20066;-76
2021/12/05 17:34:40;;;;;;;27.98;5.18;;;16.90;67.50;;;;;;4790736;30;20134;-75
2021/12/05 17:37:13;;;;;;;25.23;4.43;;;16.90;67.70;;;;;;4790817;30;20129;-76
2021/12/05 17:39:42;;;;;;;30.00;5.25;;;16.90;67.90;;;;;;4790473;30;20333;-75
2021/12/05 17:42:17;;;;;;;26.85;4.50;;;16.90;68.00;;;;;;4775056;30;20066;-75
2021/12/05 17:44:45;;;;;;;25.00;4.53;;;16.90;68.70;;;;;;4773747;30;20062;-75
2021/12/05 17:47:13;;;;;;;30.85;4.90;;;16.90;68.10;;;;;;4790460;30;20468;-75
2021/12/05 17:49:42;;;;;;;21.73;4.85;;;16.90;68.10;;;;;;4790138;30;20367;-75
2021/12/05 17:52:10;;;;;;;28.83;4.85;;;16.90;68.10;;;;;;4790589;30;20062;-74
2021/12/05 17:54:48;;;;;;;27.10;4.55;;;16.90;68.10;;;;;;4775186;30;20511;-75
2021/12/05 17:57:18;;;;;;;24.25;4.40;;;16.90;68.10;;;;;;4789233;29;20047;-76
2021/12/05 18:00:00;;;;;;;21.15;4.22;;;16.90;68.10;;;;;;4790046;30;20360;-78
2021/12/05 18:02:41;;;;;;;22.60;4.13;;;16.90;68.20;;;;;;4789863;30;20053;-75
2021/12/05 18:05:24;;;;;;;32.40;5.47;;;16.90;68.20;;;;;;4773991;30;20055;-75
2021/12/05 18:07:52;;;;;;;18.42;4.05;;;16.90;68.10;;;;;;4774203;30;20052;-74
2021/12/05 18:10:20;;;;;;;18.45;4.10;;;16.90;68.20;;;;;;4790523;30;20051;-75
2021/12/05 18:12:49;;;;;;;24.45;3.75;;;16.90;68.30;;;;;;4789589;30;20067;-75
2021/12/05 18:15:23;;;;;;;21.00;4.50;;;16.90;68.40;;;;;;4790432;30;20051;-75
2021/12/05 18:17:48;;;;;;;20.90;3.78;;;16.80;67.70;;;;;;4775045;30;20063;-74
2021/12/05 18:20:18;;;;;;;14.65;3.58;;;16.40;65.30;;;;;;4774278;30;20053;-72
2021/12/05 18:22:46;;;;;;;13.10;3.60;;;16.60;68.00;;;;;;4774339;30;20063;-73
2021/12/05 18:25:12;;;;;;;20.50;4.63;;;16.60;68.00;;;;;;4790297;30;20107;-73
2021/12/05 18:27:40;;;;;;;17.85;3.63;;;16.60;67.90;;;;;;4790227;30;20051;-74
2021/12/05 18:30:08;;;;;;;13.82;3.42;;;16.60;68.30;;;;;;4789955;30;20055;-73
2021/12/05 18:32:34;;;;;;;19.45;3.72;;;16.60;67.60;;;;;;4773972;30;20092;-74
2021/12/05 18:35:01;;;;;;;15.73;4.13;;;16.60;67.50;;;;;;4789758;30;20460;-72
2021/12/05 18:37:27;;;;;;;11.25;3.13;;;16.60;67.30;;;;;;4789374;30;20051;-74
2021/12/05 18:39:53;;;;;;;13.52;3.70;;;16.60;67.20;;;;;;4788654;30;20055;-74
2021/12/05 18:42:21;;;;;;;10.90;3.15;;;16.60;67.10;;;;;;4789279;30;20166;-74